Cirencester, United Kingdom
Current Conditions -  °F | °C
As of 12:58 PM on Thursday 23 Oct 2014 (Local Time) from EGVA Reporting Station
Overcast Overcast  
Wind Chill: 59°   Ceiling: 1900
Heat Index: 59°   Visibility: 6mi
Dew Point: 53°   Wind: 14mph
Humidity: 79%   Direction: 230°SW
Pressure: 30.06"   Gusts: NA
Location:  51.72°N, 1.97°W
Report Text: EGVA 231158Z AUTO 23012KT 9999 OVC019 15/12 A3006 RMK AO2 SLP183 T01510115 10156 20112 58008
Loading
Personal Weather Stations






























Interactive Weather Map New forecast layout! Learn more

10-Day Weather Forecast

Advertisements
Track Severe Weather on mobile